createdAt,value
2017-08-23T10:55:53.816Z,49.92
2017-08-23T10:56:34.389Z,49.63
2017-08-23T10:57:14.934Z,49.63
2017-08-23T10:57:55.492Z,49.82
2017-08-23T10:58:36.043Z,49.82
2017-08-23T10:59:16.793Z,50.12
2017-08-23T10:59:57.336Z,50.21
2017-08-23T11:00:37.888Z,49.73
2017-08-23T11:01:18.438Z,50.09
2017-08-23T11:01:58.989Z,49.61
2017-08-23T11:02:39.578Z,49.71
2017-08-23T11:03:20.117Z,50.09
2017-08-23T11:04:00.663Z,50.09
2017-08-23T11:04:41.234Z,50.12
2017-08-23T11:05:21.747Z,50.02
2017-08-23T11:06:02.307Z,50.02
2017-08-23T11:06:42.864Z,50.02
2017-08-23T11:07:23.489Z,50.12
2017-08-23T11:08:04.055Z,49.44
2017-08-23T11:08:44.606Z,49.54
2017-08-23T11:09:25.166Z,49.44
2017-08-23T11:10:05.717Z,49.63
2017-08-23T11:10:46.267Z,49.54
2017-08-23T11:11:26.822Z,48.95
2017-08-23T11:12:07.367Z,48.75
2017-08-23T11:12:47.909Z,48.85
2017-08-23T11:13:28.456Z,48.95
2017-08-23T11:14:09.007Z,48.85
2017-08-23T11:14:49.551Z,48.68
2017-08-23T11:15:30.099Z,48.58
2017-08-23T11:16:10.650Z,48.2
2017-08-23T11:16:51.197Z,48
2017-08-23T11:17:31.738Z,47.81
2017-08-23T11:18:12.291Z,48.1
2017-08-23T11:18:52.839Z,48.2
2017-08-23T11:19:33.393Z,47.83
2017-08-23T11:20:13.942Z,48.13
2017-08-23T11:20:54.544Z,47.83
2017-08-23T11:21:35.089Z,47.27
2017-08-23T11:22:15.632Z,47.47
2017-08-23T11:22:56.183Z,47.66
2017-08-23T11:23:36.723Z,46.98
2017-08-23T11:24:17.270Z,46.51
2017-08-23T11:24:57.815Z,46.51
2017-08-23T11:25:38.378Z,45.84
2017-08-23T11:26:18.897Z,45.94
2017-08-23T11:26:59.496Z,45.54
2017-08-23T11:27:40.042Z,45.52
2017-08-23T11:28:20.671Z,45.72
2017-08-23T11:29:01.222Z,45.94
2017-08-23T11:29:41.760Z,45.84
2017-08-23T11:30:22.302Z,46.03
2017-08-23T11:31:02.836Z,45.84
2017-08-23T11:31:43.379Z,44.57
2017-08-23T11:32:23.923Z,44.57
2017-08-23T11:33:04.469Z,44.28
2017-08-23T11:33:45.012Z,44.18
2017-08-23T11:34:25.552Z,44.18
2017-08-23T11:35:06.112Z,43.79
2017-08-23T11:35:46.654Z,43.89
2017-08-23T11:36:27.199Z,44.16
2017-08-23T11:37:07.742Z,43.79
2017-08-23T11:37:48.293Z,44.16
2017-08-23T11:38:28.857Z,44.18
2017-08-23T11:39:09.485Z,43.89
2017-08-23T11:39:51.088Z,44.48
2017-08-23T11:40:31.692Z,44.3
2017-08-23T11:41:12.312Z,44.2
2017-08-23T11:41:52.858Z,43.74
2017-08-23T11:42:33.401Z,44.23
2017-08-23T11:43:13.954Z,43.84
2017-08-23T11:43:54.490Z,44.23
2017-08-23T11:44:35.209Z,44.03
2017-08-23T11:45:15.820Z,43.81
2017-08-23T11:45:56.359Z,43.52
2017-08-23T11:46:37.900Z,43.13
2017-08-23T11:47:18.436Z,43.04
2017-08-23T11:47:58.979Z,43.11
2017-08-23T11:48:39.818Z,43.01
2017-08-23T11:49:20.478Z,43.67
2017-08-23T11:50:01.098Z,43.77
2017-08-23T11:50:41.733Z,44.16
2017-08-23T11:51:22.346Z,44.06
2017-08-23T11:52:03.091Z,44.09
2017-08-23T11:52:43.689Z,44.18
2017-08-23T11:53:24.239Z,44.09
2017-08-23T11:54:04.783Z,44.01
2017-08-23T11:54:46.301Z,43.23
2017-08-23T11:55:26.841Z,43.21
2017-08-23T11:56:07.424Z,42.91
2017-08-23T11:56:48.082Z,43.21
2017-08-23T11:57:28.623Z,43.29
2017-08-23T11:58:09.288Z,44.06
2017-08-23T11:58:49.854Z,44.24
2017-08-23T11:59:30.516Z,44.82
2017-08-23T12:00:11.332Z,45.5
2017-08-23T12:00:52.131Z,45.48
2017-08-23T12:01:32.837Z,45.18
2017-08-23T12:02:14.021Z,45.57
2017-08-23T12:02:54.567Z,45.89
2017-08-23T12:03:35.316Z,45.98
2017-08-23T12:04:15.838Z,45.89
2017-08-23T12:04:56.521Z,45.11
2017-08-23T12:05:37.099Z,44.62
2017-08-23T12:06:17.831Z,44.31
2017-08-23T12:06:58.380Z,44.6
2017-08-23T12:07:39.133Z,44.82
2017-08-23T12:08:19.772Z,45.11
2017-08-23T12:09:00.309Z,45.31
2017-08-23T12:09:41.129Z,45.31
2017-08-23T12:10:21.756Z,45.31
2017-08-23T12:11:02.326Z,45.11
2017-08-23T12:11:42.948Z,44.72
2017-08-23T12:12:23.610Z,44.92
2017-08-23T12:13:04.245Z,44.53
2017-08-23T12:13:45.020Z,44.74
2017-08-23T12:14:26.082Z,45.04
2017-08-23T12:15:07.663Z,45.72
2017-08-23T12:15:48.267Z,45.15
2017-08-23T12:16:29.728Z,45.15
2017-08-23T12:17:10.489Z,44.57
2017-08-23T12:17:51.087Z,44.48
2017-08-23T12:18:31.625Z,44.59
2017-08-23T12:19:12.251Z,44.1
2017-08-23T12:19:52.929Z,44.1
2017-08-23T12:20:33.479Z,43.91
2017-08-23T12:21:14.106Z,43.43
2017-08-23T12:21:54.674Z,43.13
2017-08-23T12:22:35.301Z,43.33
2017-08-23T12:23:16.633Z,43.52
2017-08-23T12:23:57.177Z,43.62
2017-08-23T12:24:37.806Z,43.21
2017-08-23T12:25:18.341Z,43.3
2017-08-23T12:25:58.959Z,43.33
2017-08-23T12:26:39.519Z,43.04
2017-08-23T12:27:20.116Z,43.43
2017-08-23T12:28:00.662Z,43.23
2017-08-23T12:28:41.205Z,43.13
2017-08-23T12:29:21.748Z,43.11
2017-08-23T12:30:02.639Z,43.99
2017-08-23T12:30:43.902Z,43.5
2017-08-23T12:31:24.670Z,43.3
2017-08-23T12:32:05.245Z,44.35
2017-08-23T12:32:46.093Z,43.67
2017-08-23T12:33:26.719Z,44.18
2017-08-23T12:34:07.350Z,44.09
2017-08-23T12:34:48.092Z,43.48
2017-08-23T12:35:28.774Z,42.99
2017-08-23T12:36:09.307Z,43.29
2017-08-23T12:36:49.855Z,44.06
2017-08-23T12:37:30.402Z,44.28
2017-08-23T12:38:10.946Z,44.18
2017-08-23T12:38:51.497Z,43.96
2017-08-23T12:39:32.043Z,44.35
2017-08-23T12:40:12.590Z,44.65
2017-08-23T12:40:53.134Z,44.84
2017-08-23T12:41:33.677Z,44.35
2017-08-23T12:42:14.221Z,43.87
2017-08-23T12:42:54.766Z,44.35
2017-08-23T12:43:35.346Z,43.77
2017-08-23T12:44:15.897Z,43.96
2017-08-23T12:44:56.452Z,43.87
2017-08-23T12:45:36.991Z,44.24
2017-08-23T12:46:17.535Z,44.24
2017-08-23T12:46:58.084Z,44.55
2017-08-23T12:47:38.633Z,44.45
2017-08-23T12:48:19.177Z,43.96
2017-08-23T12:48:59.719Z,44.65
2017-08-23T12:49:40.252Z,43.87
2017-08-23T12:50:20.798Z,44.16
2017-08-23T12:51:01.344Z,43.96
2017-08-23T12:51:41.880Z,43.96
2017-08-23T12:52:22.430Z,44.06
2017-08-23T12:53:02.973Z,44.04
2017-08-23T12:53:43.522Z,44.14
2017-08-23T12:54:24.066Z,44.04
2017-08-23T12:55:04.616Z,44.06
2017-08-23T12:55:45.168Z,44.45
2017-08-23T12:56:25.716Z,44.94
2017-08-23T12:57:06.267Z,44.45
2017-08-23T12:57:46.800Z,44.55
2017-08-23T12:58:27.346Z,44.74
2017-08-23T12:59:07.897Z,45.14
2017-08-23T12:59:48.459Z,45.04
2017-08-23T13:00:28.999Z,45.81
2017-08-23T13:01:09.560Z,45.52
2017-08-23T13:01:50.092Z,45.72
2017-08-23T13:02:30.634Z,46.01
2017-08-23T13:03:11.208Z,45.81
2017-08-23T13:03:51.753Z,45.91
2017-08-23T13:04:32.295Z,46.3
2017-08-23T13:05:12.842Z,45.91
2017-08-23T13:05:53.381Z,46.01
2017-08-23T13:06:33.929Z,46.2
2017-08-23T13:07:14.466Z,46.11
2017-08-23T13:07:55.001Z,46.11
2017-08-23T13:08:35.545Z,45.91
2017-08-23T13:09:16.092Z,46.59
2017-08-23T13:09:56.641Z,46.13
2017-08-23T13:10:37.193Z,46.23
2017-08-23T13:11:17.737Z,44.96
2017-08-23T13:11:58.277Z,44.74
2017-08-23T13:12:38.827Z,44.45
2017-08-23T13:13:19.344Z,44.74
2017-08-23T13:13:59.876Z,45.42
2017-08-23T13:14:40.799Z,45.14
2017-08-23T13:15:21.517Z,45.14
2017-08-23T13:16:02.385Z,45.23
2017-08-23T13:16:43.188Z,45.72
2017-08-23T13:17:23.953Z,45.94
2017-08-23T13:18:04.486Z,46.03
2017-08-23T13:18:45.045Z,45.74
2017-08-23T13:19:25.752Z,45.84
2017-08-23T13:20:06.315Z,45.72
2017-08-23T13:20:46.963Z,45.23
2017-08-23T13:21:27.539Z,45.25
2017-08-23T13:22:08.287Z,45.62
2017-08-23T13:22:48.849Z,45.54
2017-08-23T13:23:29.430Z,44.67
2017-08-23T13:24:10.187Z,44.96
2017-08-23T13:24:51.701Z,44.76
2017-08-23T13:25:32.322Z,45.06
2017-08-23T13:26:13.032Z,45.54
2017-08-23T13:26:53.623Z,45.57
2017-08-23T13:27:34.314Z,45.35
2017-08-23T13:28:15.050Z,45.76
2017-08-23T13:28:55.959Z,45.18
2017-08-23T13:29:36.551Z,45.64
2017-08-23T13:30:17.094Z,45.74
2017-08-23T13:30:57.751Z,45.91
2017-08-23T13:31:38.310Z,46.61
2017-08-23T13:32:19.131Z,46.4
2017-08-23T13:32:59.723Z,46.11
2017-08-23T13:33:40.398Z,46.2
2017-08-23T13:34:20.930Z,46.2
2017-08-23T13:35:01.598Z,46.96
2017-08-23T13:35:42.223Z,46.86
2017-08-23T13:36:23.001Z,47.15
2017-08-23T13:37:03.645Z,47.15
2017-08-23T13:37:44.215Z,47.34
2017-08-23T13:38:24.803Z,47.44
2017-08-23T13:39:05.655Z,47.44
2017-08-23T13:39:46.926Z,47.37
2017-08-23T13:40:27.554Z,47.37
2017-08-23T13:41:08.134Z,47.08
2017-08-23T13:41:48.669Z,47.17
2017-08-23T13:42:29.448Z,46.69
2017-08-23T13:43:10.403Z,46.78
2017-08-23T13:43:50.945Z,46.98
2017-08-23T13:44:31.476Z,47.08
2017-08-23T13:45:12.099Z,46.98
2017-08-23T13:45:52.859Z,46.98
2017-08-23T13:46:33.522Z,47.17
2017-08-23T13:47:14.073Z,47.86
2017-08-23T13:47:54.585Z,47.66
2017-08-23T13:48:35.115Z,47.56
2017-08-23T13:49:15.651Z,46.78
2017-08-23T13:49:56.347Z,47.17
2017-08-23T13:50:36.974Z,46.88
2017-08-23T13:51:17.723Z,46.78
2017-08-23T13:51:58.420Z,47.08
2017-08-23T13:52:39.075Z,47.37
2017-08-23T13:53:19.792Z,47.56
2017-08-23T13:54:00.706Z,47.17
2017-08-23T13:54:41.481Z,47.56
2017-08-23T13:55:22.216Z,48.73
2017-08-23T13:56:02.740Z,49.32
2017-08-23T13:56:43.466Z,48.54
2017-08-23T13:57:24.318Z,48.25
2017-08-23T13:58:04.910Z,47.96
2017-08-23T13:58:45.864Z,48.22
2017-08-23T13:59:26.488Z,48.32
2017-08-23T14:00:07.036Z,48.61
2017-08-23T14:00:47.632Z,48.41
2017-08-23T14:01:28.427Z,47.74
2017-08-23T14:02:09.097Z,47.34
2017-08-23T14:02:49.644Z,48.22
2017-08-23T14:03:30.438Z,48.03
2017-08-23T14:04:11.308Z,48.13
2017-08-23T14:04:51.910Z,48.32
2017-08-23T14:05:32.517Z,48.51
2017-08-23T14:06:13.064Z,48.51
2017-08-23T14:06:53.595Z,48.41
2017-08-23T14:07:34.168Z,48.41
2017-08-23T14:08:14.805Z,48.71
2017-08-23T14:08:55.354Z,48.51
2017-08-23T14:09:36.000Z,48.51
2017-08-23T14:10:16.635Z,48.13
2017-08-23T14:10:57.178Z,48.32
2017-08-23T14:11:37.963Z,48.61
2017-08-23T14:12:18.547Z,48.2
2017-08-23T14:12:59.195Z,48.61
2017-08-23T14:13:39.809Z,49.19
2017-08-23T14:14:20.498Z,49.07
2017-08-23T14:15:01.146Z,48.97
2017-08-23T14:15:41.681Z,49.27
2017-08-23T14:16:22.229Z,48.78
2017-08-23T14:17:02.757Z,49.17
2017-08-23T14:17:43.317Z,49.07
2017-08-23T14:18:23.838Z,48.68
2017-08-23T14:19:04.384Z,49.27
2017-08-23T14:19:44.965Z,49.66
2017-08-23T14:20:25.476Z,49.46
2017-08-23T14:21:06.012Z,49.37
2017-08-23T14:21:46.564Z,49.66
2017-08-23T14:22:27.103Z,49.78
2017-08-23T14:23:07.644Z,49.95
2017-08-23T14:23:48.195Z,50.73
2017-08-23T14:24:28.716Z,50.95
2017-08-23T14:25:09.270Z,50.24
2017-08-23T14:25:49.819Z,50.85
2017-08-23T14:26:30.366Z,51.11
2017-08-23T14:27:10.911Z,50.92
2017-08-23T14:27:51.451Z,50.82
2017-08-23T14:28:31.991Z,50.73
2017-08-23T14:29:12.517Z,51.11
2017-08-23T14:29:53.057Z,51.21
2017-08-23T14:30:33.615Z,51.21
2017-08-23T14:31:14.134Z,51.11
2017-08-23T14:31:54.664Z,50.34
2017-08-23T14:32:35.209Z,49.97
2017-08-23T14:33:15.788Z,49.85
2017-08-23T14:33:56.299Z,49.27
2017-08-23T14:34:36.843Z,49.46
2017-08-23T14:35:17.402Z,49.46
2017-08-23T14:35:57.936Z,49.37
2017-08-23T14:36:38.482Z,49.76
2017-08-23T14:37:19.028Z,49.76
2017-08-23T14:37:59.569Z,49.95
2017-08-23T14:38:40.112Z,50.34
2017-08-23T14:39:20.650Z,49.95
2017-08-23T14:40:01.192Z,49.85
2017-08-23T14:40:41.731Z,50.04
2017-08-23T14:41:22.279Z,49.85
2017-08-23T14:42:02.823Z,50.34
2017-08-23T14:42:43.383Z,50.24
2017-08-23T14:43:23.924Z,49.85
2017-08-23T14:44:04.447Z,50.53
2017-08-23T14:44:44.977Z,50.14
2017-08-23T14:45:25.518Z,49.95
2017-08-23T14:46:06.049Z,50.14
2017-08-23T14:46:46.590Z,50.46
2017-08-23T14:47:27.122Z,49.97
2017-08-23T14:48:07.667Z,50.07
2017-08-23T14:48:48.219Z,50.16
2017-08-23T14:49:28.765Z,50.16
2017-08-23T14:50:09.308Z,49.97
2017-08-23T14:50:49.898Z,50.19
2017-08-23T14:51:30.440Z,50.85
2017-08-23T14:52:10.983Z,50.97
2017-08-23T14:52:51.536Z,51.17
2017-08-23T14:53:32.088Z,50.87
2017-08-23T14:54:12.636Z,51.07
2017-08-23T14:54:53.177Z,51.29
2017-08-23T14:55:33.710Z,51.09
2017-08-23T14:56:14.246Z,50.99
2017-08-23T14:56:54.784Z,51.19
2017-08-23T14:57:35.318Z,51.29
2017-08-23T14:58:15.852Z,51.09
2017-08-23T14:58:56.399Z,50.99
2017-08-23T14:59:36.951Z,50.9
2017-08-23T15:00:17.494Z,50.7
2017-08-23T15:00:58.043Z,51.19
2017-08-23T15:01:38.596Z,50.8
2017-08-23T15:02:19.142Z,50.8
2017-08-23T15:02:59.681Z,50.8
2017-08-23T15:03:40.226Z,50.12
2017-08-23T15:04:20.770Z,50.21
2017-08-23T15:05:01.310Z,50.31
2017-08-23T15:05:41.850Z,50.51
2017-08-23T15:06:22.387Z,50.51
2017-08-23T15:07:02.943Z,50.14
2017-08-23T15:07:43.470Z,50.34
2017-08-23T15:08:24.012Z,50.24
2017-08-23T15:09:04.550Z,50.31
2017-08-23T15:09:45.109Z,50.43
2017-08-23T15:10:25.654Z,50.53
2017-08-23T15:11:06.214Z,50.82
2017-08-23T15:11:46.804Z,50.63
2017-08-23T15:12:27.346Z,50.82
2017-08-23T15:13:07.907Z,50.92
2017-08-23T15:13:48.451Z,50.82
2017-08-23T15:14:28.991Z,50.43
2017-08-23T15:15:10.392Z,50.43
2017-08-23T15:15:50.905Z,50.63
2017-08-23T15:16:31.495Z,50.82
2017-08-23T15:17:12.062Z,51.02
2017-08-23T15:17:52.617Z,51.12
2017-08-23T15:18:33.129Z,50.24
2017-08-23T15:19:13.682Z,50.43
2017-08-23T15:19:54.210Z,50.73
2017-08-23T15:20:34.759Z,50.53
2017-08-23T15:21:15.376Z,50.14
2017-08-23T15:21:55.945Z,50.34
2017-08-23T15:22:36.509Z,50.04
2017-08-23T15:23:17.078Z,49.37
2017-08-23T15:23:57.637Z,49.85
2017-08-23T15:24:38.187Z,49.17
2017-08-23T15:25:18.727Z,49.37
2017-08-23T15:25:59.364Z,49.27
2017-08-23T15:26:39.923Z,49.56
2017-08-23T15:27:20.509Z,50.04
2017-08-23T15:28:01.044Z,50.14
2017-08-23T15:28:42.538Z,50.43
2017-08-23T15:29:23.644Z,50.34
2017-08-23T15:30:04.266Z,50.53
2017-08-23T15:30:44.722Z,50.43
2017-08-23T15:31:25.242Z,50.24
2017-08-23T15:32:05.743Z,50.24
2017-08-23T15:32:46.291Z,50.43
2017-08-23T15:33:29.708Z,50.63
2017-08-23T15:34:11.941Z,50.92
2017-08-23T15:34:52.492Z,51.21
2017-08-23T15:35:33.038Z,50.82
2017-08-23T15:36:13.572Z,50.34
2017-08-23T15:36:54.153Z,50.53
2017-08-23T15:37:34.671Z,50.92
2017-08-23T15:38:15.190Z,50.92
2017-08-23T15:38:55.751Z,50.82
2017-08-23T15:39:36.263Z,50.92
2017-08-23T15:40:16.802Z,50.82
2017-08-23T15:40:57.337Z,50.53
2017-08-23T15:41:37.868Z,50.73
2017-08-23T15:42:18.442Z,50.65
2017-08-23T15:42:58.994Z,50.65
2017-08-23T15:43:39.527Z,50.26
2017-08-23T15:44:20.051Z,50.07
2017-08-23T15:45:00.607Z,50.36
2017-08-23T15:45:41.129Z,50.36
2017-08-23T15:46:21.647Z,50.16
2017-08-23T15:47:02.161Z,50.16
2017-08-23T15:47:42.704Z,50.26
2017-08-23T15:48:23.259Z,50.36
2017-08-23T15:49:03.828Z,50.56
2017-08-23T15:49:44.372Z,50.95
2017-08-23T15:50:24.976Z,50.75
2017-08-23T15:51:05.506Z,51.34
2017-08-23T15:51:46.050Z,51.04
2017-08-23T15:52:26.593Z,51.34
2017-08-23T15:53:07.137Z,51.04
2017-08-23T15:53:47.703Z,51.14
2017-08-23T15:54:28.222Z,51.04
2017-08-23T15:55:08.771Z,50.75
2017-08-23T15:55:49.346Z,50.75
2017-08-23T15:56:29.886Z,51.04
2017-08-23T15:57:10.448Z,50.26
2017-08-23T15:57:50.984Z,50.46
2017-08-23T15:58:31.527Z,50.56
2017-08-23T15:59:12.053Z,50.85
2017-08-23T15:59:52.576Z,51.14
2017-08-23T16:00:33.121Z,51.04
2017-08-23T16:01:13.681Z,51.04
2017-08-23T16:01:54.256Z,50.75
2017-08-23T16:02:34.841Z,51.04
2017-08-23T16:03:15.392Z,51.14
2017-08-23T16:03:55.935Z,51.21
2017-08-23T16:04:36.473Z,50.92
2017-08-23T16:05:17.028Z,50.92
2017-08-23T16:05:57.572Z,50.92
2017-08-23T16:06:38.118Z,51.12
2017-08-23T16:07:18.673Z,50.73
2017-08-23T16:07:59.221Z,50.82
2017-08-23T16:08:39.741Z,50.92
2017-08-23T16:09:20.286Z,51.02
2017-08-23T16:10:00.860Z,50.63
2017-08-23T16:10:41.418Z,50.73
2017-08-23T16:11:21.985Z,50.85
2017-08-23T16:12:02.537Z,51.04
2017-08-23T16:12:43.236Z,51.34
2017-08-23T16:13:23.753Z,51.21
2017-08-23T16:14:04.288Z,51.02
2017-08-23T16:14:44.837Z,50.82
2017-08-23T16:15:25.397Z,51.02
2017-08-23T16:16:05.961Z,50.73
2017-08-23T16:16:46.506Z,51.21
2017-08-23T16:17:27.053Z,51.51
2017-08-23T16:18:07.594Z,51.41
2017-08-23T16:18:48.166Z,51.51
2017-08-23T16:19:28.729Z,50.82
2017-08-23T16:20:09.276Z,50.82
2017-08-23T16:20:49.834Z,50.82
2017-08-23T16:21:30.372Z,51.02
2017-08-23T16:22:10.944Z,51.12
2017-08-23T16:22:51.485Z,51.29
2017-08-23T16:23:32.028Z,51.19
2017-08-23T16:24:12.561Z,50.8
2017-08-23T16:24:53.106Z,50.99
2017-08-23T16:25:33.674Z,50.9
2017-08-23T16:26:14.217Z,50.78
2017-08-23T16:26:54.776Z,51.07
2017-08-23T16:27:35.292Z,50.78
2017-08-23T16:28:15.813Z,50.78
2017-08-23T16:28:56.361Z,51.17
2017-08-23T16:29:36.920Z,50.97
2017-08-23T16:30:17.428Z,51.36
2017-08-23T16:30:57.967Z,51.45
2017-08-23T16:31:38.507Z,51.82
2017-08-23T16:32:19.052Z,51.82
2017-08-23T16:32:59.599Z,51.62
2017-08-23T16:33:40.131Z,51.72
2017-08-23T16:34:20.670Z,52.31
2017-08-23T16:35:01.208Z,52.5
2017-08-23T16:35:41.760Z,52.31
2017-08-23T16:36:22.327Z,52.76
2017-08-23T16:37:02.869Z,53.16
2017-08-23T16:37:43.400Z,53.54
2017-08-23T16:38:23.979Z,53.06
2017-08-23T16:39:04.529Z,52.86
2017-08-23T16:39:45.105Z,53.16
2017-08-23T16:40:30.890Z,53.35
2017-08-23T16:41:11.414Z,53.35
2017-08-23T16:41:51.951Z,54.03
2017-08-23T16:42:32.622Z,54
2017-08-23T16:43:13.062Z,53.93
2017-08-23T16:43:53.547Z,54.58
2017-08-23T16:44:34.091Z,54.29
2017-08-23T16:45:14.633Z,54.1
2017-08-23T16:45:55.169Z,54.49
2017-08-23T16:46:35.696Z,54.58
2017-08-23T16:47:16.233Z,55.07
2017-08-23T16:47:56.785Z,54.68
2017-08-23T16:48:37.332Z,54.88
2017-08-23T16:49:17.856Z,54.78
2017-08-23T16:49:58.910Z,55.17
2017-08-23T16:50:39.442Z,55.46
2017-08-23T16:51:19.979Z,55.46
2017-08-23T16:52:00.522Z,55.46
2017-08-23T16:52:41.058Z,55.46
2017-08-23T16:53:21.596Z,55.65
2017-08-23T16:54:02.140Z,56.14
2017-08-23T16:54:42.685Z,56.04
2017-08-23T16:55:23.230Z,55.46
2017-08-23T16:56:03.774Z,55.75
2017-08-23T16:56:44.317Z,55.65
2017-08-23T16:57:24.836Z,55.65
2017-08-23T16:58:05.356Z,56.04
2017-08-23T16:58:45.873Z,55.92
2017-08-23T16:59:26.413Z,55.92
2017-08-23T17:00:06.954Z,55.92
2017-08-23T17:00:47.472Z,55.92
2017-08-23T17:01:28.010Z,56.01
2017-08-23T17:02:08.550Z,55.82
2017-08-23T17:02:49.101Z,56.01
2017-08-23T17:03:29.624Z,56.01
2017-08-23T17:04:10.158Z,55.92
2017-08-23T17:04:50.678Z,56.01
2017-08-23T17:05:31.234Z,55.92
2017-08-23T17:06:11.781Z,56.3
2017-08-23T17:06:52.277Z,56.3
2017-08-23T17:07:32.848Z,56.79
2017-08-23T17:08:13.368Z,56.5
2017-08-23T17:08:53.910Z,56.3
2017-08-23T17:09:34.449Z,56.21
2017-08-23T17:10:14.983Z,56.6
2017-08-23T17:10:55.526Z,56.6
2017-08-23T17:11:36.061Z,56.7
2017-08-23T17:12:16.594Z,56.7
2017-08-23T17:12:57.113Z,56.7
2017-08-23T17:13:37.641Z,57.15
2017-08-23T17:14:18.177Z,56.86
2017-08-23T17:14:58.728Z,57.34
2017-08-23T17:15:39.244Z,57.44
2017-08-23T17:16:19.775Z,57.64
2017-08-23T17:17:00.321Z,57.93
2017-08-23T17:17:40.822Z,57.83
2017-08-23T17:18:21.365Z,58.03
2017-08-23T17:19:01.908Z,58.22
2017-08-23T17:19:42.459Z,58.12
2017-08-23T17:20:23.000Z,57.93
2017-08-23T17:21:03.549Z,58.7
2017-08-23T17:21:44.091Z,58.51
2017-08-23T17:22:24.641Z,58.51
2017-08-23T17:23:05.182Z,58.51
2017-08-23T17:23:45.720Z,58.41
2017-08-23T17:24:26.266Z,58.48
2017-08-23T17:25:06.808Z,59.16
2017-08-23T17:25:47.364Z,58.77
2017-08-23T17:26:27.935Z,59.26
2017-08-23T17:27:08.433Z,59.06
2017-08-23T17:27:48.966Z,59.06
2017-08-23T17:28:29.508Z,59.26
2017-08-23T17:29:10.084Z,59.06
2017-08-23T17:29:50.629Z,59.55
2017-08-23T17:30:31.194Z,59.84
2017-08-23T17:31:11.725Z,59.06
2017-08-23T17:31:52.276Z,59.71
2017-08-23T17:32:32.826Z,59.84
2017-08-23T17:33:13.362Z,59.91
2017-08-23T17:33:53.916Z,59.71
2017-08-23T17:34:34.465Z,59.64
2017-08-23T17:35:15.005Z,59.81
2017-08-23T17:35:55.555Z,59.94
2017-08-23T17:36:36.108Z,59.71
2017-08-23T17:37:16.644Z,59.61
2017-08-23T17:37:57.174Z,60.2
2017-08-23T17:38:37.724Z,59.91
2017-08-23T17:39:18.262Z,59.91
2017-08-23T17:39:58.790Z,60.1
2017-08-23T17:40:39.336Z,60.1
2017-08-23T17:41:19.879Z,60.58
2017-08-23T17:42:00.404Z,60.39
2017-08-23T17:42:41.018Z,60.58
2017-08-23T17:43:21.550Z,60.49
2017-08-23T17:44:02.091Z,60.39
2017-08-23T17:44:42.638Z,60.88
2017-08-23T17:45:23.177Z,60.78
2017-08-23T17:46:03.746Z,61.07
2017-08-23T17:46:44.591Z,61.07
2017-08-23T17:47:25.157Z,61.46
2017-08-23T17:48:05.679Z,61.46
2017-08-23T17:48:46.325Z,61.91
2017-08-23T17:49:26.872Z,61.82
2017-08-23T17:50:07.448Z,61.94
2017-08-23T17:50:47.999Z,62.3
2017-08-23T17:51:28.548Z,62.1
2017-08-23T17:52:09.113Z,62.4
2017-08-23T17:52:49.630Z,62.49
2017-08-23T17:53:30.180Z,62.59
2017-08-23T17:54:10.721Z,62.3
2017-08-23T17:54:51.270Z,62.79
2017-08-23T17:55:31.806Z,63.07
2017-08-23T17:56:12.354Z,62.88
2017-08-23T17:56:52.901Z,63.04
2017-08-23T17:57:33.428Z,62.85
2017-08-23T17:58:13.972Z,63.34
2017-08-23T17:58:54.513Z,63.53
2017-08-23T17:59:35.053Z,63.43
2017-08-23T18:00:15.594Z,64.01
2017-08-23T18:00:56.130Z,64.2
2017-08-23T18:01:36.663Z,63.92
2017-08-23T18:02:17.196Z,64.11
2017-08-23T18:02:57.741Z,63.92
2017-08-23T18:03:38.279Z,64.2
2017-08-23T18:04:18.829Z,64.66
2017-08-23T18:04:59.504Z,64.56
2017-08-23T18:05:40.098Z,64.27
2017-08-23T18:06:20.629Z,64.4
2017-08-23T18:07:01.232Z,64.66
2017-08-23T18:07:41.780Z,64.56
2017-08-23T18:08:22.344Z,64.95
2017-08-23T18:09:02.874Z,64.75
2017-08-23T18:09:43.410Z,65.14
2017-08-23T18:10:23.965Z,65.14
2017-08-23T18:11:04.489Z,65.43
2017-08-23T18:11:45.099Z,65.43
2017-08-23T18:12:25.625Z,65.34
2017-08-23T18:13:06.177Z,65.05
2017-08-23T18:13:46.773Z,65.72
2017-08-23T18:14:27.321Z,65.72
2017-08-23T18:15:07.896Z,65.59
2017-08-23T18:15:48.466Z,65.69
2017-08-23T18:16:29.006Z,65.59
2017-08-23T18:17:09.608Z,66.3
2017-08-23T18:17:50.150Z,66.08
2017-08-23T18:18:30.697Z,65.98
2017-08-23T18:19:11.239Z,66.37
2017-08-23T18:19:51.779Z,66.08
2017-08-23T18:20:32.327Z,65.98
2017-08-23T18:21:12.869Z,65.88
2017-08-23T18:21:53.415Z,66.37
2017-08-23T18:22:33.964Z,66.08
2017-08-23T18:23:14.497Z,66.47
2017-08-23T18:23:55.036Z,66.56
2017-08-23T18:24:35.575Z,66.37
2017-08-23T18:25:16.119Z,66.47
2017-08-23T18:25:56.661Z,66.85
2017-08-23T18:26:37.208Z,66.43
2017-08-23T18:27:17.754Z,66.82
2017-08-23T18:27:58.297Z,67.01
2017-08-23T18:28:38.894Z,67.01
2017-08-23T18:29:19.432Z,66.82
2017-08-23T18:29:59.980Z,66.72
2017-08-23T18:30:40.526Z,67.21
2017-08-23T18:31:21.064Z,67.11
2017-08-23T18:32:01.602Z,67.59
2017-08-23T18:32:42.141Z,67.11
2017-08-23T18:33:22.670Z,67.4
2017-08-23T18:34:03.212Z,67.3
2017-08-23T18:34:43.763Z,67.59
2017-08-23T18:35:24.295Z,67.79
2017-08-23T18:36:04.830Z,67.98
2017-08-23T18:36:45.443Z,67.79
2017-08-23T18:37:25.997Z,67.79
2017-08-23T18:38:06.541Z,67.4
2017-08-23T18:38:47.072Z,67.85
2017-08-23T18:39:27.609Z,67.69
2017-08-23T18:40:08.145Z,67.88
2017-08-23T18:40:48.683Z,68.37
2017-08-23T18:41:29.223Z,68.08
2017-08-23T18:42:09.762Z,67.79
2017-08-23T18:42:50.301Z,68.24
2017-08-23T18:43:30.838Z,68.33
2017-08-23T18:44:11.378Z,68.43
2017-08-23T18:44:51.915Z,68.24
2017-08-23T18:45:32.454Z,68.04
2017-08-23T18:46:12.992Z,67.85
2017-08-23T18:46:53.533Z,68.24
2017-08-23T18:47:34.080Z,68.33
2017-08-23T18:48:14.620Z,68.04
2017-08-23T18:48:55.158Z,68.24
2017-08-23T18:49:35.690Z,68.62
2017-08-23T18:50:16.232Z,68.52
2017-08-23T18:50:56.758Z,68.62
2017-08-23T18:51:37.288Z,68.72
2017-08-23T18:52:18.237Z,68.91
2017-08-23T18:52:58.794Z,68.62
2017-08-23T18:53:39.329Z,69.1
2017-08-23T18:54:19.874Z,69.01
2017-08-23T18:55:00.418Z,69.01
2017-08-23T18:55:40.960Z,69.01
2017-08-23T18:56:21.518Z,69.07
2017-08-23T18:57:02.314Z,68.88
2017-08-23T18:57:43.235Z,68.88
2017-08-23T18:58:23.783Z,69.36
2017-08-23T18:59:04.517Z,68.68
2017-08-23T18:59:45.391Z,69.26
2017-08-23T19:00:26.016Z,69.26
2017-08-23T19:01:51.003Z,69.36
2017-08-23T19:02:33.098Z,69.17
2017-08-23T19:03:13.626Z,69.46
2017-08-23T19:03:54.322Z,69.26
2017-08-23T19:04:35.178Z,69.74
2017-08-23T19:05:16.283Z,69.84
2017-08-23T19:05:56.814Z,70.04
2017-08-23T19:06:37.358Z,70.04
2017-08-23T19:07:17.890Z,69.84
2017-08-23T19:07:58.440Z,69.65
2017-08-23T19:08:38.975Z,69.84
2017-08-23T19:09:19.520Z,69.94
2017-08-23T19:10:00.056Z,70.42
2017-08-23T19:10:40.594Z,70.32
2017-08-23T19:11:21.132Z,69.84
2017-08-23T19:12:01.672Z,70.32
2017-08-23T19:12:42.222Z,70.58
2017-08-23T19:13:22.766Z,70.48
2017-08-23T19:14:03.302Z,70.42
2017-08-23T19:14:43.839Z,70.62
2017-08-23T19:15:24.377Z,70.72
2017-08-23T19:16:04.920Z,70.81
2017-08-23T19:16:45.452Z,71.2
2017-08-23T19:17:25.985Z,70.97
2017-08-23T19:18:06.514Z,71.36
2017-08-23T19:18:47.062Z,71.16
2017-08-23T19:19:27.800Z,71.36
2017-08-23T19:20:08.341Z,71.16
2017-08-23T19:20:48.919Z,71.26
2017-08-23T19:21:29.476Z,71.64
2017-08-23T19:22:09.993Z,71.64
2017-08-23T19:22:50.522Z,71.64
2017-08-23T19:23:31.147Z,71.84
2017-08-23T19:24:11.698Z,71.84
2017-08-23T19:24:52.241Z,72.32
2017-08-23T19:25:32.862Z,72.32
2017-08-23T19:26:13.471Z,72.52
2017-08-23T19:26:54.018Z,72.32
2017-08-23T19:27:34.570Z,72.71
2017-08-23T19:28:15.107Z,72.9
2017-08-23T19:28:55.654Z,72.52
2017-08-23T19:29:36.190Z,73.09
2017-08-23T19:30:16.730Z,73
2017-08-23T19:30:57.267Z,72.8
2017-08-23T19:31:37.806Z,73.54
2017-08-23T19:32:18.346Z,73.86
2017-08-23T19:32:58.889Z,73.67
2017-08-23T19:33:39.426Z,73.44
2017-08-23T19:34:19.964Z,74.02
2017-08-23T19:35:00.505Z,73.73
2017-08-23T19:35:41.048Z,73.73
2017-08-23T19:36:21.592Z,73.93
2017-08-23T19:37:02.136Z,74.12
2017-08-23T19:37:42.673Z,74.31
2017-08-23T19:38:23.217Z,74.51
2017-08-23T19:39:03.754Z,74.6
2017-08-23T19:39:44.296Z,74.6
2017-08-23T19:40:24.833Z,75.18